This is the latest recevied weather packets stored in our database for station/object NK2J. If no packets are shown the sender has not sent any weather packets the latest 1 day(s).
| Time | Temp. | Humidity | Pressure | Rain* | Wind** | Luminosity | Snow |
|---|---|---|---|---|---|---|---|
| 1777993647 | 18.89° C | 72% | 1013.7 hPa | 0 mm | 0.89 m/s, 6° | 195 W/m² | - |
| 1777993344 | 18.89° C | 70% | 1013.6 hPa | 0 mm | 0.45 m/s, 19° | 372 W/m² | - |
| 1777993046 | 18.33° C | 75% | 1013.7 hPa | 0 mm | 0.89 m/s, 328° | 197 W/m² | - |
| 1777992742 | 18.33° C | 77% | 1013.7 hPa | 0 mm | 1.34 m/s, 7° | 185 W/m² | - |
| 1777992439 | 18.33° C | 78% | 1013.7 hPa | 0 mm | 0.45 m/s, 54° | 165 W/m² | - |
| 1777992138 | 17.78° C | 79% | 1013.6 hPa | 0 mm | 1.34 m/s, 308° | 137 W/m² | - |
| 1777991834 | 17.78° C | 80% | 1013.8 hPa | 0 mm | 0.89 m/s, 12° | 124 W/m² | - |
| 1777991532 | 17.78° C | 80% | 1013.7 hPa | 0 mm | 0.89 m/s, 348° | 127 W/m² | - |
| 1777991228 | 17.78° C | 81% | 1013.8 hPa | 0 mm | 0.45 m/s, 340° | 120 W/m² | - |
| 1777990926 | 17.78° C | 81% | 1013.6 hPa | 0 mm | 0.45 m/s, 308° | 103 W/m² | - |
| 1777990624 | 17.78° C | 82% | 1013.7 hPa | 0 mm | 0.45 m/s, 327° | 71 W/m² | - |
| 1777990320 | 17.22° C | 82% | 1013.8 hPa | 0 mm | 0 m/s | 58 W/m² | - |
| 1777990016 | 17.22° C | 83% | 1013.6 hPa | 0 mm | 0.89 m/s, 292° | 50 W/m² | - |
| 1777989714 | 17.22° C | 83% | 1013.7 hPa | 0 mm | 0.45 m/s, 311° | 42 W/m² | - |
| 1777989409 | 17.22° C | 83% | 1013.6 hPa | 0 mm | 0.45 m/s, 262° | 36 W/m² | - |
| 1777989106 | 17.22° C | 83% | 1013.6 hPa | 0 mm | 0.45 m/s, 321° | 38 W/m² | - |
| 1777988802 | 17.22° C | 84% | 1013.6 hPa | 0 mm | 0.45 m/s, 326° | 37 W/m² | - |
| 1777988500 | 17.22° C | 84% | 1013.7 hPa | 0 mm | 0.45 m/s, 329° | 23 W/m² | - |
| 1777988197 | 17.22° C | 84% | 1013.7 hPa | 0 mm | 0.45 m/s, 353° | 13 W/m² | - |
| 1777987893 | 17.22° C | 85% | 1013.7 hPa | 0 mm | 0.45 m/s, 282° | 9 W/m² | - |
| 1777987589 | 17.22° C | 84% | 1013.7 hPa | 0 mm | 0 m/s | 6 W/m² | - |
| 1777987287 | 17.22° C | 84% | 1013.5 hPa | 0 mm | 0.45 m/s, 0° | 7 W/m² | - |
| 1777986983 | 17.22° C | 84% | 1013.4 hPa | 0 mm | 0.45 m/s, 349° | 10 W/m² | - |
| 1777986681 | 16.67° C | 84% | 1013.5 hPa | 0 mm | 0.45 m/s, 341° | 11 W/m² | - |
| 1777986379 | 16.67° C | 84% | 1013.3 hPa | 0 mm | 0.45 m/s, 329° | 9 W/m² | - |
* Rain latest hour (hover to see other rain measurements)
** Current wind speed in m/s (hover to see current wind gust speed)